Latest Weather Observations for Gatton

IDQ60901

Issued at 5:35 pm EST Saturday 29 November 2014 (issued every 10 minutes, with the page automatically refreshed every 10 minutes)

About weather observations | Map of Brisbane area stations | Latest observations for Brisbane area | Other Formats
Station Details ID: 040082 Name: UNIVERSITY OF QUEENSLAND GATTON Lat: -27.54 Lon: 152.34 Height: 89.0 m
Data from the previous 72 hours. | See also: Recent months at Gatton
Date/Time
EST
Tmp

°C
App
Tmp
°C
Dew
Point
°C
Rel
Hum
%
Delta-T

°C
Wind Press
QNH
hPa
Press
MSL
hPa
Rain
since
9 am
mm
Dir
 
Spd
km/h
Gust
km/h
Spd
kts
Gust
kts
29/05:30pm 25.8 21.5 10.8 39 8.5 ENE 24 33 13 18 - - 0.0
29/05:00pm 26.8 21.8 10.9 37 9.0 E 28 35 15 19 - - 0.0
29/04:30pm 28.0 23.2 10.2 33 10.0 E 26 37 14 20 - - 0.0
29/04:00pm 28.6 24.5 8.8 29 10.9 E 20 33 11 18 - - 0.0
29/03:30pm 29.4 23.9 9.0 28 11.4 E 28 35 15 19 - - 0.0
29/03:00pm 29.5 24.6 8.5 27 11.6 E 24 32 13 17 - - 0.0
29/02:30pm 29.6 25.4 7.5 25 12.0 E 19 26 10 14 - - 0.0
29/02:00pm 29.7 25.7 8.2 26 11.8 E 19 37 10 20 - - 0.0
29/01:30pm 29.4 25.5 8.5 27 11.5 ESE 19 33 10 18 - - 0.0
29/01:00pm 29.2 25.4 7.7 26 11.7 ESE 17 30 9 16 - - 0.0
29/12:30pm 29.0 27.3 9.7 30 10.8 SE 9 26 5 14 - - 0.0
29/12:00pm 28.8 25.2 10.0 31 10.6 ESE 19 30 10 16 - - 0.0
29/11:30am 27.5 24.6 9.8 33 9.9 ESE 15 32 8 17 - - 0.0
29/11:00am 27.5 23.9 9.8 33 9.9 ESE 19 35 10 19 - - 0.0
29/10:30am 27.7 26.4 12.5 39 8.9 E 11 32 6 17 - - 0.0
29/10:00am 26.6 24.0 11.9 40 8.5 E 17 32 9 17 - - 0.0
29/09:30am 26.3 23.5 12.7 43 7.9 E 19 33 10 18 - - 0.0
29/09:00am 26.3 24.5 14.4 48 7.1 E 17 30 9 16 - - 0.0
29/08:30am 25.7 24.1 15.1 52 6.4 ESE 17 28 9 15 - - 0.0
29/08:00am 23.8 21.6 14.5 56 5.5 ESE 19 24 10 13 - - 0.0
29/07:30am 23.0 20.7 14.6 59 5.0 E 20 30 11 16 - - 0.0
29/07:00am 22.9 21.1 16.0 65 4.2 ESE 20 28 11 15 - - 0.0
29/06:30am 21.4 20.8 15.7 70 3.4 SE 13 19 7 10 - - 0.0
29/06:00am 20.4 20.7 16.0 76 2.6 SE 9 11 5 6 - - 0.0
29/05:30am 19.0 20.0 16.4 85 1.6 ESE 6 9 3 5 - - 0.0
29/05:00am 17.3 18.9 14.9 86 1.4 CALM 0 0 0 0 - - 0.0
29/04:30am 17.8 19.1 15.1 84 1.6 SE 2 7 1 4 - - 0.0
29/04:00am 18.7 20.6 15.8 83 1.7 CALM 0 0 0 0 - - 0.0
29/03:30am 19.0 19.8 15.9 82 1.8 E 6 9 3 5 - - 0.0
29/03:00am 19.4 20.1 16.1 81 2.0 E 7 9 4 5 - - 0.0
29/02:30am 19.3 19.7 16.2 82 1.9 E 9 11 5 6 - - 0.0
29/02:00am 19.3 20.2 16.2 82 1.9 SE 6 9 3 5 - - 0.0
29/01:30am 19.3 19.7 16.3 83 1.8 SE 9 13 5 7 - - 0.0
29/01:00am 19.1 19.8 16.0 82 1.9 SSE 7 11 4 6 - - 0.0
29/12:30am 18.6 19.1 15.5 82 1.8 SSE 7 11 4 6 - - 0.0
29/12:00am 18.5 19.4 15.0 80 2.0 ESE 4 6 2 3 - - 0.0
 
Date/Time
EST
Tmp

°C
App
Tmp
°C
Dew
Point
°C
Rel
Hum
%
Delta-T

°C
Wind Press
QNH
hPa
Press
MSL
hPa
Rain
since
9 am
mm
Dir
 
Spd
km/h
Gust
km/h
Spd
kts
Gust
kts
28/11:30pm 18.9 19.0 15.4 80 2.1 SE 9 13 5 7 - - 0.0
28/11:00pm 19.1 19.4 15.0 77 2.4 ESE 7 11 4 6 - - 0.0
28/10:30pm 19.2 18.8 15.3 78 2.3 E 11 15 6 8 - - 0.0
28/10:00pm 20.2 20.0 15.6 75 2.7 E 11 15 6 8 - - 0.0
28/09:30pm 20.1 20.1 15.1 73 3.0 E 9 11 5 6 - - 0.0
28/09:00pm 21.1 21.1 15.2 69 3.5 ENE 9 17 5 9 - - 0.0
28/08:30pm 21.5 19.9 15.1 67 3.8 ENE 17 20 9 11 - - 0.0
28/08:00pm 22.0 19.8 14.9 64 4.2 E 20 26 11 14 - - 0.0
28/07:30pm 22.3 19.8 14.2 60 4.8 E 20 28 11 15 - - 0.0
28/07:00pm 22.4 20.1 14.0 59 4.9 E 19 24 10 13 - - 0.0
28/06:30pm 23.4 20.4 14.7 58 5.2 E 24 32 13 17 - - 0.0
28/06:00pm 23.9 20.9 14.9 57 5.4 E 24 35 13 19 - - 0.0
28/05:30pm 24.6 21.7 15.0 55 5.8 E 24 33 13 18 - - 0.0
28/05:00pm 24.5 21.8 15.7 58 5.3 E 24 32 13 17 - - 0.0
28/04:30pm 23.9 22.8 16.4 63 4.6 SSE 17 22 9 12 - - 0.0
28/04:00pm 24.1 21.4 16.6 63 4.6 SE 26 37 14 20 - - 0.0
28/03:30pm 23.3 20.0 17.1 68 3.8 SSE 30 41 16 22 - - 0.0
28/03:00pm 25.7 24.0 17.1 59 5.4 SE 22 33 12 18 - - 0.0
28/02:30pm 25.4 23.4 17.3 61 5.1 SE 24 35 13 19 - - 0.0
28/02:00pm 25.5 23.0 17.2 60 5.2 ESE 26 41 14 22 - - 0.0
28/01:30pm 24.7 21.7 17.7 65 4.4 SE 30 44 16 24 - - 0.0
28/01:00pm 26.0 23.2 17.4 59 5.4 SE 28 37 15 20 - - 0.0
28/12:30pm 26.5 23.1 16.7 55 6.1 SE 30 39 16 21 - - 0.0
28/12:00pm 27.4 25.2 17.8 55 6.1 ESE 26 39 14 21 - - 0.0
28/11:30am 25.8 22.6 17.2 59 5.4 SE 30 44 16 24 - - 0.0
28/11:00am 26.7 24.8 17.7 57 5.7 SE 24 35 13 19 - - 0.0
28/10:30am 25.3 23.9 17.0 60 5.2 SE 20 32 11 17 - - 0.0
28/10:00am 25.7 24.2 16.8 58 5.5 ESE 20 28 11 15 - - 0.0
28/09:30am 25.9 24.6 17.3 59 5.4 ESE 20 32 11 17 - - 0.0
28/09:00am 24.9 22.6 16.6 60 5.1 ESE 24 32 13 17 - - 2.4
28/08:30am 25.5 23.9 17.4 61 5.1 ESE 22 35 12 19 - - 2.4
28/08:00am 24.5 24.0 18.7 70 3.7 ESE 19 26 10 14 - - 2.4
28/07:30am 23.3 22.7 17.5 70 3.6 ESE 17 22 9 12 - - 2.4
28/07:00am 22.3 21.1 17.0 72 3.3 SE 19 26 10 14 - - 2.4
28/06:30am 22.5 21.4 17.4 73 3.2 SE 19 28 10 15 - - 2.4
28/06:00am 21.5 21.0 16.9 75 2.8 SE 15 20 8 11 - - 2.4
28/05:30am 21.0 21.4 17.2 79 2.3 ESE 11 17 6 9 - - 2.4
28/05:00am 20.3 20.6 16.9 81 2.1 E 11 13 6 7 - - 2.4
28/04:30am 20.8 20.6 16.8 78 2.4 ESE 13 20 7 11 - - 2.4
28/04:00am 20.8 20.7 17.0 79 2.3 E 13 17 7 9 - - 2.4
28/03:30am 21.1 19.8 16.9 77 2.6 SE 19 26 10 14 - - 2.4
28/03:00am 21.3 20.5 17.1 77 2.6 SE 17 26 9 14 - - 2.4
28/02:30am 21.1 20.8 17.3 79 2.3 SE 15 22 8 12 - - 2.4
28/02:00am 21.1 20.9 17.5 80 2.2 SE 15 24 8 13 - - 2.4
28/01:30am 21.5 21.3 17.7 79 2.4 SE 15 20 8 11 - - 2.4
28/01:00am 21.3 21.1 17.5 79 2.3 ESE 15 20 8 11 - - 2.4
28/12:30am 21.8 21.8 18.0 79 2.4 SE 15 20 8 11 - - 2.4
28/12:00am 21.8 22.2 18.2 80 2.3 SE 13 19 7 10 - - 2.4
 
Date/Time
EST
Tmp

°C
App
Tmp
°C
Dew
Point
°C
Rel
Hum
%
Delta-T

°C
Wind Press
QNH
hPa
Press
MSL
hPa
Rain
since
9 am
mm
Dir
 
Spd
km/h
Gust
km/h
Spd
kts
Gust
kts
27/11:30pm 22.0 22.4 18.2 79 2.4 SE 13 22 7 12 - - 2.4
27/11:00pm 21.9 22.4 18.3 80 2.3 SE 13 19 7 10 - - 2.4
27/10:30pm 21.8 22.4 18.6 82 2.0 ESE 13 17 7 9 - - 2.4
27/10:00pm 21.9 22.5 18.5 81 2.1 ESE 13 17 7 9 - - 2.4
27/09:30pm 22.4 22.2 18.6 79 2.4 ESE 17 22 9 12 - - 2.4
27/09:00pm 22.3 22.7 19.1 82 2.0 E 15 20 8 11 - - 2.4
27/08:30pm 21.9 24.2 19.8 88 1.3 NE 7 17 4 9 - - 2.2
27/08:00pm 21.7 23.2 19.8 89 1.2 ESE 11 15 6 8 - - 2.2
27/07:30pm 21.3 21.7 19.9 92 0.9 E 17 24 9 13 - - 2.0
27/07:00pm 21.6 22.9 19.3 87 1.5 SE 11 15 6 8 - - 1.4
27/06:30pm 22.2 20.0 18.6 80 2.3 E 28 39 15 21 - - 0.4
27/06:00pm 22.7 21.3 18.0 75 2.9 SE 22 32 12 17 - - 0.2
27/05:30pm 24.5 21.4 16.5 61 4.9 SE 28 44 15 24 - - 0.0
27/05:16pm 25.0 21.0 16.7 60 5.1 SE 33 52 18 28 - - 0.0
27/05:00pm 25.6 19.4 15.9 55 5.9 SE 43 56 23 30 - - 0.0
27/04:35pm 28.9 22.4 15.1 43 8.4 SE 43 61 23 33 - - 0.0
27/04:30pm 29.3 21.7 13.5 38 9.4 SE 46 61 25 33 - - 0.0
27/04:29pm 29.7 22.3 13.0 35 9.9 SE 44 61 24 33 - - 0.0
27/04:00pm 34.6 33.6 13.4 28 12.9 SE 11 17 6 9 - - 0.0
27/03:30pm 34.8 35.0 14.1 28 12.8 NNE 6 11 3 6 - - 0.0
27/03:00pm 34.5 34.6 14.4 30 12.4 W 7 13 4 7 - - 0.0
27/02:30pm 33.9 33.4 13.9 30 12.2 NW 9 15 5 8 - - 0.0
27/02:00pm 35.0 34.8 14.8 29 12.6 SSW 9 17 5 9 - - 0.0
27/01:30pm 33.5 33.8 15.0 32 11.5 ENE 7 13 4 7 - - 0.0
27/01:00pm 33.2 33.4 15.7 35 11.0 ENE 9 17 5 9 - - 0.0
27/12:30pm 32.4 33.2 16.3 38 10.2 SE 7 15 4 8 - - 0.0
27/12:00pm 31.2 31.1 16.0 40 9.5 SSW 11 17 6 9 - - 0.0
27/11:30am 30.5 31.0 16.5 43 8.8 WNW 9 15 5 8 - - 0.0
27/11:00am 29.8 30.6 17.3 47 7.9 WSW 9 19 5 10 - - 0.0
27/10:30am 29.6 31.6 18.7 52 7.1 SW 6 9 3 5 - - 0.0
27/10:00am 27.7 28.6 17.5 53 6.4 ENE 9 13 5 7 - - 0.0
27/09:30am 27.4 29.4 19.2 61 5.3 WSW 7 13 4 7 - - 0.0
27/09:00am 26.2 27.7 18.8 63 4.7 ESE 9 11 5 6 - - 3.6
27/08:30am 25.1 27.1 19.2 70 3.8 SE 7 11 4 6 - - 3.6
27/08:00am 24.0 26.2 19.5 76 2.9 SW 7 11 4 6 - - 3.6
27/07:30am 23.2 25.3 20.2 83 1.9 WSW 9 13 5 7 - - 3.6
27/07:00am 22.5 24.0 19.7 84 1.8 WSW 11 13 6 7 - - 3.6
27/06:30am 21.2 22.2 19.5 90 1.1 W 13 15 7 8 - - 3.6
27/06:00am 20.6 22.8 19.6 94 0.6 W 7 11 4 6 - - 3.6
27/05:30am 20.0 22.1 19.3 96 0.4 W 7 9 4 5 - - 3.6
27/05:00am 19.2 20.9 18.4 95 0.5 W 7 7 4 4 - - 3.6
27/04:30am 19.3 20.9 18.3 94 0.6 WSW 7 7 4 4 - - 3.6
27/04:00am 19.4 22.3 18.1 92 0.8 CALM 0 0 0 0 - - 3.6
27/03:30am 19.8 22.1 18.5 92 0.8 NNW 4 7 2 4 - - 3.6
27/03:00am 20.2 23.5 19.0 93 0.8 CALM 0 0 0 0 - - 3.6
27/02:30am 20.4 23.7 19.2 93 0.8 CALM 0 6 0 3 - - 3.6
27/02:00am 20.4 22.9 19.1 92 0.8 WNW 4 6 2 3 - - 3.6
27/01:30am 20.4 22.9 19.1 92 0.8 W 4 7 2 4 - - 3.6
27/01:00am 20.8 24.1 19.1 90 1.1 CALM 0 0 0 0 - - 3.6
27/12:30am 21.0 23.2 19.3 90 1.1 NE 6 7 3 4 - - 3.6
27/12:00am 21.2 23.0 19.5 90 1.1 S 9 15 5 8 - - 3.6
 
Date/Time
EST
Tmp

°C
App
Tmp
°C
Dew
Point
°C
Rel
Hum
%
Delta-T

°C
Wind Press
QNH
hPa
Press
MSL
hPa
Rain
since
9 am
mm
Dir
 
Spd
km/h
Gust
km/h
Spd
kts
Gust
kts
26/11:30pm 20.9 22.3 19.6 92 0.8 NW 11 17 6 9 - - 3.6
26/11:00pm 20.9 23.6 19.4 91 1.0 SSW 4 9 2 5 - - 3.6
26/10:30pm 20.9 22.9 19.2 90 1.1 WNW 7 11 4 6 - - 3.6
26/10:00pm 20.8 22.8 19.1 90 1.1 SW 7 9 4 5 - - 3.6
26/09:30pm 20.8 24.1 19.1 90 1.1 CALM 0 0 0 0 - - 3.6
26/09:00pm 20.7 22.5 18.8 89 1.2 NW 7 11 4 6 - - 3.4
26/08:30pm 21.2 24.7 19.5 90 1.1 CALM 0 6 0 3 - - 3.4
26/08:00pm 20.4 23.6 18.9 91 0.9 CALM 0 0 0 0 - - 3.4
26/07:30pm 20.3 22.1 18.8 91 0.9 NNW 7 13 4 7 - - 3.4
26/07:00pm 20.2 21.9 18.5 90 1.1 N 7 11 4 6 - - 3.4
26/06:30pm 19.9 20.6 17.9 88 1.2 SSW 11 19 6 10 - - 3.2
26/06:00pm 20.0 18.2 18.7 92 0.8 SW 26 35 14 19 - - 3.2

Latest Capital City Observations: Canberra | Sydney | Melbourne | Brisbane | Adelaide | Perth | Hobart | Darwin

Other Formats:

Comma delimited format used in spreadsheet applications
http://www.bom.gov.au/fwo/IDQ60901/IDQ60901.94562.axf

JavaScript Object Notation format (JSON) in row-major order
http://www.bom.gov.au/fwo/IDQ60901/IDQ60901.94562.json